Time;durP1;ratioP1;P1;durP2;ratioP2;P2;SDS_P1;SDS_P2;PMS_P1;PMS_P2;Temp;Humidity;BMP_temperature;BMP_pressure;BME280_temperature;BME280_humidity;BME280_pressure;Samples;Min_cycle;Max_cycle;Signal;HPM_P1;HPM_P2
2023/03/30 00:00:19;;;;;;;;;4.00;4.00;;;;;17.67;49.05;100524.88;5058950;28;45337;-69
2023/03/30 00:02:49;;;;;;;;;4.67;4.67;;;;;17.72;49.81;100519.78;5058926;28;45288;-70
2023/03/30 00:05:16;;;;;;;;;7.00;5.67;;;;;17.63;50.15;100502.09;5057996;28;45784;-69
2023/03/30 00:07:42;;;;;;;;;4.33;4.33;;;;;17.68;50.29;100517.69;5058525;28;45494;-70
2023/03/30 00:10:13;;;;;;;;;8.00;5.33;;;;;17.70;50.30;100508.38;5058716;28;45198;-70
2023/03/30 00:12:39;;;;;;;;;3.67;3.67;;;;;17.68;50.42;100505.06;5040647;28;45393;-69
2023/03/30 00:15:06;;;;;;;;;2.33;2.33;;;;;16.70;50.64;100320.56;5058534;28;46358;-70
2023/03/30 00:17:32;;;;;;;;;6.00;4.00;;;;;17.42;51.80;100429.56;5058245;28;45278;-70
2023/03/30 00:20:00;;;;;;;;;3.33;3.33;;;;;17.61;51.79;100461.13;5058291;28;45253;-71
2023/03/30 00:22:27;;;;;;;;;4.00;4.00;;;;;17.61;52.39;100471.88;5058114;28;45533;-71
2023/03/30 00:24:52;;;;;;;;;4.33;3.00;;;;;16.73;52.81;100339.78;5058355;28;45302;-70
2023/03/30 00:27:17;;;;;;;;;4.00;4.00;;;;;17.52;52.52;100478.44;5058287;28;45270;-70
2023/03/30 00:29:43;;;;;;;;;8.33;5.67;;;;;16.38;52.63;100268.22;5058248;28;45320;-70
2023/03/30 00:32:08;;;;;;;;;4.00;4.00;;;;;17.34;52.78;100438.59;5058505;28;45507;-70
2023/03/30 00:34:34;;;;;;;;;5.67;4.67;;;;;17.41;52.73;100460.97;5057858;28;45706;-71
2023/03/30 00:37:00;;;;;;;;;6.00;4.00;;;;;17.37;52.75;100448.97;5057977;28;45378;-70
2023/03/30 00:39:25;;;;;;;;;4.00;4.00;;;;;17.16;52.61;100431.03;5058411;28;45447;-71
2023/03/30 00:41:51;;;;;;;;;3.33;3.33;;;;;17.08;52.53;100422.28;5058683;28;45305;-70
2023/03/30 00:44:54;;;;;;;;;5.33;4.33;;;;;17.25;52.20;100458.59;5039864;28;46212;-68
2023/03/30 00:47:20;;;;;;;;;5.33;4.00;;;;;17.14;52.01;100441.13;5039777;28;45902;-71
2023/03/30 00:49:45;;;;;;;;;6.67;3.33;;;;;17.27;51.83;100452.00;5057684;28;45444;-70
2023/03/30 00:52:11;;;;;;;;;4.00;4.00;;;;;16.87;51.92;100402.50;5058276;28;45456;-69
2023/03/30 00:54:38;;;;;;;;;5.67;3.67;;;;;16.74;52.00;100372.84;5039422;28;45529;-70
2023/03/30 00:57:06;;;;;;;;;4.00;4.00;;;;;17.26;51.90;100482.59;5039519;28;45361;-69
2023/03/30 00:59:32;;;;;;;;;5.33;5.33;;;;;16.84;52.43;100377.88;5057927;28;45502;-70
2023/03/30 01:01:59;;;;;;;;;5.67;4.00;;;;;17.14;52.89;100465.31;5057661;28;45300;-70
2023/03/30 01:04:24;;;;;;;;;4.67;4.00;;;;;17.06;53.80;100422.50;5057299;28;45798;-69
2023/03/30 01:06:51;;;;;;;;;5.33;5.33;;;;;17.11;54.24;100444.22;5057163;28;45397;-70
2023/03/30 01:09:17;;;;;;;;;7.00;5.00;;;;;17.12;54.54;100448.56;5039617;28;45375;-69
2023/03/30 01:11:43;;;;;;;;;6.00;6.00;;;;;17.09;54.54;100461.56;5039963;28;45217;-69
2023/03/30 01:14:12;;;;;;;;;8.00;8.00;;;;;17.07;54.93;100451.00;5058234;28;45474;-70
2023/03/30 01:17:05;;;;;;;;;5.00;5.00;;;;;17.05;54.81;100455.75;5039449;28;45344;-70
2023/03/30 01:19:42;;;;;;;;;4.33;4.33;;;;;17.01;54.80;100451.75;5039636;28;45294;-70
2023/03/30 01:22:29;;;;;;;;;3.67;3.67;;;;;16.97;54.67;100453.16;5040154;28;45647;-70
2023/03/30 01:25:17;;;;;;;;;2.00;2.00;;;;;16.91;54.73;100448.59;5059923;28;46593;-70
2023/03/30 01:28:17;;;;;;;;;3.67;3.67;;;;;16.82;54.52;100439.84;5057517;28;45495;-70
2023/03/30 01:30:51;;;;;;;;;4.00;4.00;;;;;16.90;54.41;100430.81;5056849;28;45416;-70
2023/03/30 01:33:38;;;;;;;;;3.33;2.67;;;;;16.88;54.77;100449.81;5039501;28;45566;-70
2023/03/30 01:36:22;;;;;;;;;1.00;1.00;;;;;16.88;54.46;100448.97;5036687;28;46702;-70
2023/03/30 01:39:14;;;;;;;;;1.50;1.50;;;;;16.85;54.28;100471.66;5036995;28;45339;-69
2023/03/30 01:41:55;;;;;;;;;1.75;0.00;;;;;16.85;54.33;100489.63;5037277;28;45515;-71
2023/03/30 01:44:32;;;;;;;;;1.67;1.67;;;;;16.82;54.75;100487.31;5035978;28;45322;-71
2023/03/30 01:47:15;;;;;;;;;2.33;2.33;;;;;16.64;54.49;100459.03;5036861;28;46276;-70
2023/03/30 01:49:49;;;;;;;;;2.33;1.67;;;;;16.84;54.43;100506.78;5018644;28;45757;-70
2023/03/30 01:52:40;;;;;;;;;1.67;1.67;;;;;16.82;54.65;100479.25;5051496;28;45461;-70
2023/03/30 01:55:11;;;;;;;;;1.33;1.33;;;;;16.77;54.41;100470.94;5057304;28;45241;-69
2023/03/30 01:57:42;;;;;;;;;3.00;2.00;;;;;16.73;54.58;100463.28;5057030;28;46409;-71
2023/03/30 02:00:13;;;;;;;;;1.00;1.00;;;;;16.61;54.41;100463.94;5056950;28;45326;-69
2023/03/30 02:02:47;;;;;;;;;2.00;2.00;;;;;16.16;54.47;100395.31;5057087;28;45376;-69
2023/03/30 02:05:16;;;;;;;;;3.00;2.00;;;;;16.55;54.41;100437.84;5056867;28;45285;-71
2023/03/30 02:07:48;;;;;;;;;2.00;1.00;;;;;16.46;54.35;100404.97;5038655;28;49096;-70
2023/03/30 02:10:17;;;;;;;;;1.67;1.67;;;;;16.51;54.62;100420.47;5056870;28;45517;-69
2023/03/30 02:12:45;;;;;;;;;3.00;2.00;;;;;16.61;54.41;100453.19;5038801;28;45444;-71
2023/03/30 02:15:13;;;;;;;;;1.33;1.33;;;;;16.59;54.48;100469.47;5057066;28;45460;-70
2023/03/30 02:17:40;;;;;;;;;6.00;3.00;;;;;15.72;54.65;100329.22;5056952;28;45321;-70
2023/03/30 02:20:11;;;;;;;;;3.33;3.00;;;;;15.61;54.61;100327.00;5056568;28;45472;-69
2023/03/30 02:22:37;;;;;;;;;3.33;1.00;;;;;16.28;54.89;100458.19;5056760;28;45419;-70
2023/03/30 02:25:04;;;;;;;;;2.00;2.00;;;;;16.18;54.67;100471.06;5039053;28;45175;-70
2023/03/30 02:27:31;;;;;;;;;3.00;2.00;;;;;16.49;54.62;100505.72;5056661;28;46182;-71
2023/03/30 02:29:57;;;;;;;;;3.67;1.33;;;;;16.49;54.66;100487.75;5056534;28;45295;-70
2023/03/30 02:32:27;;;;;;;;;1.67;1.33;;;;;16.40;54.58;100456.66;5055480;28;45471;-70
2023/03/30 02:35:17;;;;;;;;;2.00;2.00;;;;;16.50;54.36;100488.59;5038363;28;45584;-68
2023/03/30 02:38:07;;;;;;;;;3.00;2.00;;;;;16.38;54.48;100499.78;5056387;28;45873;-70
2023/03/30 02:40:55;;;;;;;;;1.67;1.67;;;;;16.45;54.38;100517.84;5056390;28;45606;-70
2023/03/30 02:43:33;;;;;;;;;3.00;1.00;;;;;16.41;54.11;100536.16;5056595;28;45479;-70
2023/03/30 02:46:13;;;;;;;;;4.00;1.00;;;;;16.43;54.34;100526.09;5056934;28;45274;-69
2023/03/30 02:48:56;;;;;;;;;1.00;1.00;;;;;15.92;54.52;100452.78;5059453;28;47230;-69
2023/03/30 02:51:39;;;;;;;;;3.00;1.00;;;;;16.25;54.83;100509.53;5059779;28;45500;-71
2023/03/30 02:54:31;;;;;;;;;3.00;1.67;;;;;16.20;55.26;100517.28;5060047;28;45262;-70
2023/03/30 02:57:49;;;;;;;;;1.00;1.00;;;;;16.28;54.79;100517.22;5060069;28;45565;-70
2023/03/30 03:00:21;;;;;;;;;1.00;1.00;;;;;16.16;54.62;100494.56;5037908;28;46680;-69
2023/03/30 03:02:57;;;;;;;;;2.00;1.67;;;;;16.11;54.50;100495.13;5059689;28;45258;-69
2023/03/30 03:05:25;;;;;;;;;2.33;1.33;;;;;16.32;54.69;100529.22;5061644;28;45285;-70
2023/03/30 03:07:50;;;;;;;;;3.00;1.33;;;;;16.11;54.83;100509.34;5063428;28;45517;-70
2023/03/30 03:10:16;;;;;;;;;1.00;1.00;;;;;15.85;54.94;100463.41;5041404;28;47597;-70
2023/03/30 03:12:43;;;;;;;;;1.33;1.33;;;;;15.90;54.97;100446.78;5059624;28;45480;-70
2023/03/30 03:15:10;;;;;;;;;1.00;1.00;;;;;16.05;54.99;100490.50;5062003;28;45493;-70
2023/03/30 03:17:35;;;;;;;;;1.00;1.00;;;;;15.70;55.28;100433.09;5059700;28;45548;-70
2023/03/30 03:20:02;;;;;;;;;1.67;1.67;;;;;16.00;55.21;100463.41;5058861;28;45501;-70
2023/03/30 03:22:28;;;;;;;;;2.33;2.00;;;;;15.42;55.28;100388.16;5041097;28;45495;-69
2023/03/30 03:24:53;;;;;;;;;1.00;1.00;;;;;16.21;55.54;100529.69;5059364;28;45336;-71
2023/03/30 03:27:19;;;;;;;;;1.33;1.33;;;;;16.29;55.54;100513.50;5059578;28;45219;-69
2023/03/30 03:29:44;;;;;;;;;2.00;1.67;;;;;16.13;55.55;100496.59;5059238;28;45695;-70
2023/03/30 03:32:09;;;;;;;;;1.33;1.33;;;;;15.99;55.58;100492.06;5059289;28;45476;-69
2023/03/30 03:34:35;;;;;;;;;2.00;1.00;;;;;16.13;55.62;100512.69;5058477;28;53020;-69
2023/03/30 03:37:01;;;;;;;;;1.00;1.00;;;;;15.63;55.75;100445.59;5059056;28;45402;-69
2023/03/30 03:39:26;;;;;;;;;1.00;1.00;;;;;16.23;55.51;100531.19;5059169;28;45724;-69
2023/03/30 03:41:51;;;;;;;;;1.00;1.00;;;;;16.14;56.06;100534.97;5058987;28;45440;-68
2023/03/30 03:44:17;;;;;;;;;2.33;1.00;;;;;16.08;56.42;100517.78;5058980;28;45509;-70
2023/03/30 03:46:42;;;;;;;;;1.00;1.00;;;;;15.96;56.22;100502.31;5041069;28;45524;-69
2023/03/30 03:49:08;;;;;;;;;0.33;0.33;;;;;16.08;56.50;100531.19;5040284;28;55570;-69
2023/03/30 03:51:34;;;;;;;;;2.00;1.00;;;;;16.03;56.42;100530.91;5040783;28;45644;-70
2023/03/30 03:54:00;;;;;;;;;2.00;2.00;;;;;15.68;56.36;100472.66;5058757;28;45502;-70
2023/03/30 03:56:26;;;;;;;;;2.00;1.00;;;;;15.97;57.07;100526.28;5059011;28;45479;-70
2023/03/30 03:58:52;;;;;;;;;0.67;0.67;;;;;15.90;56.64;100520.00;5058659;28;46401;-68
2023/03/30 04:01:17;;;;;;;;;1.00;1.00;;;;;15.96;57.10;100531.81;5058705;28;45597;-70
2023/03/30 04:03:43;;;;;;;;;3.00;1.00;;;;;15.72;56.70;100516.81;5058333;28;45309;-70
2023/03/30 04:06:08;;;;;;;;;1.33;1.33;;;;;15.66;57.28;100513.03;5058659;28;45518;-70
2023/03/30 04:08:34;;;;;;;;;3.00;1.00;;;;;15.41;57.22;100482.06;5058286;28;45653;-70
2023/03/30 04:11:07;;;;;;;;;2.00;1.00;;;;;15.71;57.92;100547.31;5040327;28;45293;-70
2023/03/30 04:13:34;;;;;;;;;1.00;1.00;;;;;15.20;58.21;100474.72;5058634;28;45561;-70
2023/03/30 04:16:00;;;;;;;;;2.00;2.00;;;;;15.45;58.58;100524.41;5058745;28;45359;-70
2023/03/30 04:18:32;;;;;;;;;2.00;2.00;;;;;15.27;58.71;100507.84;5058059;28;45815;-70
2023/03/30 04:21:04;;;;;;;;;3.33;2.00;;;;;15.40;58.91;100532.16;5058053;28;45377;-70
2023/03/30 04:23:32;;;;;;;;;2.33;1.33;;;;;15.34;58.87;100526.69;5058413;28;45501;-69
2023/03/30 04:26:02;;;;;;;;;2.33;1.00;;;;;15.28;58.86;100528.25;5058571;28;45423;-70
2023/03/30 04:28:28;;;;;;;;;3.33;3.00;;;;;14.81;59.84;100459.63;5057896;28;46322;-71
2023/03/30 04:31:02;;;;;;;;;0.33;0.33;;;;;15.19;59.63;100540.03;5058304;28;45274;-69
2023/03/30 04:33:28;;;;;;;;;4.67;2.33;;;;;15.18;59.51;100546.38;5039406;28;45396;-70
2023/03/30 04:35:53;;;;;;;;;3.00;2.00;;;;;15.15;59.92;100554.78;5057899;28;45502;-69
2023/03/30 04:38:21;;;;;;;;;2.75;1.00;;;;;14.97;60.31;100528.28;5057956;28;45635;-70
2023/03/30 04:40:49;;;;;;;;;2.00;2.00;;;;;14.45;60.13;100437.16;5058115;28;45341;-70
2023/03/30 04:43:19;;;;;;;;;3.00;2.00;;;;;14.49;60.13;100435.81;5058519;28;45607;-70
2023/03/30 04:45:52;;;;;;;;;3.00;1.33;;;;;15.10;60.10;100543.78;5058172;28;45535;-70
2023/03/30 04:48:19;;;;;;;;;4.00;1.33;;;;;15.05;60.20;100549.69;5058353;28;46206;-70
2023/03/30 04:50:46;;;;;;;;;1.00;1.00;;;;;14.98;60.57;100538.00;5057963;28;45266;-70
2023/03/30 04:53:15;;;;;;;;;1.00;1.00;;;;;14.63;60.73;100503.78;5058113;28;45478;-71
2023/03/30 04:55:41;;;;;;;;;1.33;1.33;;;;;14.92;60.49;100536.03;5058173;28;45440;-70
2023/03/30 04:58:10;;;;;;;;;5.00;1.00;;;;;14.77;60.65;100517.22;5057938;28;45725;-71
2023/03/30 05:00:36;;;;;;;;;4.33;2.00;;;;;14.94;60.59;100551.91;5057944;28;45276;-73
2023/03/30 05:03:02;;;;;;;;;3.00;1.00;;;;;14.09;60.57;100416.28;5057761;28;45346;-71
2023/03/30 05:05:28;;;;;;;;;2.00;2.00;;;;;14.82;60.73;100552.34;5057702;28;45262;-70
2023/03/30 05:07:53;;;;;;;;;3.00;2.00;;;;;14.94;60.80;100570.66;5058421;28;46340;-69
2023/03/30 05:10:19;;;;;;;;;1.00;1.00;;;;;14.88;60.92;100573.03;5056871;28;45310;-71
2023/03/30 05:12:44;;;;;;;;;1.00;1.00;;;;;14.24;61.30;100468.00;5057841;28;45360;-70
2023/03/30 05:15:10;;;;;;;;;3.00;2.00;;;;;13.86;61.10;100416.22;5057684;28;45474;-71
2023/03/30 05:17:37;;;;;;;;;3.00;3.00;;;;;14.83;61.48;100586.13;5039327;28;48081;-71
2023/03/30 05:20:07;;;;;;;;;7.00;2.00;;;;;14.79;61.22;100579.41;5057018;28;45376;-71
2023/03/30 05:22:32;;;;;;;;;4.00;1.33;;;;;13.93;61.43;100454.59;5057288;28;45497;-70
2023/03/30 05:24:58;;;;;;;;;5.00;3.00;;;;;13.96;61.44;100470.28;5057597;28;45330;-70
2023/03/30 05:27:23;;;;;;;;;1.00;1.00;;;;;14.78;61.80;100612.53;5056640;28;60691;-70
2023/03/30 05:29:48;;;;;;;;;1.00;1.00;;;;;14.81;61.42;100612.19;5056956;28;45396;-70
2023/03/30 05:32:14;;;;;;;;;3.00;1.67;;;;;14.48;61.49;100565.22;5057377;28;45372;-70
2023/03/30 05:34:39;;;;;;;;;2.33;1.67;;;;;14.71;61.63;100614.25;5057097;28;45301;-71
2023/03/30 05:37:05;;;;;;;;;5.33;1.67;;;;;14.50;61.40;100563.19;5038809;28;47238;-69
2023/03/30 05:39:30;;;;;;;;;0.67;0.67;;;;;14.42;61.60;100555.19;5038857;28;45662;-70
2023/03/30 05:41:55;;;;;;;;;2.00;2.00;;;;;14.80;61.63;100618.56;5055635;28;45580;-71
2023/03/30 05:44:21;;;;;;;;;6.33;3.33;;;;;14.69;61.87;100602.06;5057044;28;45511;-76
2023/03/30 05:46:46;;;;;;;;;3.33;2.00;;;;;14.81;61.73;100620.22;5056400;28;46154;-72
2023/03/30 05:49:11;;;;;;;;;5.00;2.33;;;;;14.73;61.70;100620.28;5056791;28;45498;-71
2023/03/30 05:51:37;;;;;;;;;4.00;2.67;;;;;14.56;61.61;100583.88;5038326;28;45563;-74
2023/03/30 05:54:02;;;;;;;;;1.00;1.00;;;;;14.66;61.54;100599.75;5037515;28;45524;-72
2023/03/30 05:56:28;;;;;;;;;3.00;2.00;;;;;14.82;61.79;100632.63;5037035;28;45753;-71
2023/03/30 05:58:54;;;;;;;;;3.00;2.67;;;;;14.60;61.51;100598.56;5026987;28;45445;-71
2023/03/30 06:01:20;;;;;;;;;3.00;1.00;;;;;14.81;62.09;100638.13;5058078;28;45333;-71
2023/03/30 06:03:45;;;;;;;;;2.33;1.00;;;;;14.29;62.23;100545.84;5057764;28;45254;-71
2023/03/30 06:06:11;;;;;;;;;1.33;1.33;;;;;14.69;62.18;100616.28;5057020;28;46311;-70
2023/03/30 06:08:37;;;;;;;;;1.67;1.00;;;;;14.70;62.07;100622.47;5056622;28;45576;-71
2023/03/30 06:11:02;;;;;;;;;3.00;2.00;;;;;14.85;62.00;100642.97;5056975;28;46460;-70
2023/03/30 06:13:28;;;;;;;;;4.67;3.00;;;;;14.06;61.79;100507.50;5057384;28;45463;-72
2023/03/30 06:15:53;;;;;;;;;4.33;3.00;;;;;14.72;62.03;100610.56;5056708;28;45685;-71
2023/03/30 06:18:19;;;;;;;;;3.67;1.00;;;;;15.02;61.49;100658.97;5056774;28;45413;-69
2023/03/30 06:20:48;;;;;;;;;3.33;3.00;;;;;15.01;62.20;100657.28;5056841;28;45407;-71
2023/03/30 06:23:14;;;;;;;;;2.00;2.00;;;;;14.88;61.85;100639.13;5060486;28;45369;-73
2023/03/30 06:25:40;;;;;;;;;3.00;1.67;;;;;14.69;62.21;100616.28;5029613;28;48326;-76
2023/03/30 06:28:06;;;;;;;;;1.00;1.00;;;;;14.76;61.88;100630.63;5040021;28;45535;-75
2023/03/30 06:30:32;;;;;;;;;4.33;3.00;;;;;14.64;62.24;100593.75;5057571;28;45262;-70
2023/03/30 06:32:57;;;;;;;;;4.00;3.33;;;;;15.05;61.51;100658.63;5042521;28;45261;-71
2023/03/30 06:35:23;;;;;;;;;8.00;7.00;;;;;15.16;61.33;100667.06;5057414;28;48346;-70
2023/03/30 06:37:48;;;;;;;;;1.67;1.67;;;;;15.14;61.34;100690.53;5060043;28;45542;-70
2023/03/30 06:40:14;;;;;;;;;5.00;2.00;;;;;15.11;61.33;100660.59;5060447;28;45399;-71
2023/03/30 06:42:40;;;;;;;;;2.33;2.00;;;;;15.26;61.02;100680.25;5059919;28;45583;-71
2023/03/30 06:45:07;;;;;;;;;1.00;1.00;;;;;15.02;61.01;100646.41;5059287;28;45581;-71
2023/03/30 06:47:32;;;;;;;;;4.00;2.00;;;;;14.58;61.11;100576.53;5059687;28;45331;-72
2023/03/30 06:49:58;;;;;;;;;2.00;1.00;;;;;15.29;61.01;100704.00;5069241;28;45310;-69
2023/03/30 06:52:23;;;;;;;;;0.67;0.67;;;;;15.30;61.07;100700.31;5062005;28;45280;-70
2023/03/30 06:54:48;;;;;;;;;2.33;1.67;;;;;15.28;60.47;100702.34;5079860;28;47951;-71
2023/03/30 06:57:14;;;;;;;;;3.00;2.00;;;;;15.17;60.89;100689.34;5064202;28;47706;-72
2023/03/30 06:59:39;;;;;;;;;2.00;2.00;;;;;14.53;60.71;100584.25;5060425;28;45213;-72
2023/03/30 07:02:05;;;;;;;;;3.67;2.33;;;;;14.84;61.03;100635.13;5060805;28;45335;-72
2023/03/30 07:04:30;;;;;;;;;4.67;3.67;;;;;15.41;60.55;100718.66;5059812;28;46146;-73
2023/03/30 07:06:56;;;;;;;;;1.00;1.00;;;;;15.20;60.44;100673.75;5060136;28;45279;-71
2023/03/30 07:09:23;;;;;;;;;1.00;0.33;;;;;15.50;60.33;100727.50;5059780;28;45268;-72
2023/03/30 07:11:49;;;;;;;;;4.00;3.00;;;;;15.40;60.36;100732.22;5059790;28;45317;-72
2023/03/30 07:14:14;;;;;;;;;3.33;2.33;;;;;15.05;60.60;100675.50;5059438;28;45546;-72
2023/03/30 07:16:40;;;;;;;;;3.67;2.33;;;;;15.47;60.53;100736.72;5059483;28;45508;-72
2023/03/30 07:19:05;;;;;;;;;4.33;3.33;;;;;15.10;60.79;100683.84;5059917;28;45422;-73
2023/03/30 07:21:31;;;;;;;;;4.67;2.00;;;;;15.28;60.44;100697.00;5060637;28;45240;-72
2023/03/30 07:24:00;;;;;;;;;3.00;1.33;;;;;15.51;60.15;100731.84;5064451;28;45948;-70
2023/03/30 07:26:25;;;;;;;;;7.00;4.67;;;;;15.62;60.05;100744.06;5038920;28;45360;-73
2023/03/30 07:28:50;;;;;;;;;8.33;5.00;;;;;15.19;60.14;100684.63;5038984;28;45436;-72
2023/03/30 07:31:16;;;;;;;;;4.33;4.00;;;;;14.41;59.54;100530.25;5021363;28;45531;-72
2023/03/30 07:33:41;;;;;;;;;8.00;4.00;;;;;15.64;59.29;100709.88;5038322;28;46746;-72
2023/03/30 07:36:07;;;;;;;;;4.33;2.67;;;;;15.82;58.92;100743.41;5039061;28;45203;-72
2023/03/30 07:38:33;;;;;;;;;3.00;3.00;;;;;16.10;58.63;100759.81;5052780;28;45356;-72
2023/03/30 07:40:59;;;;;;;;;4.00;4.00;;;;;16.31;57.97;100755.59;5059653;28;45439;-71
2023/03/30 07:43:25;;;;;;;;;5.33;4.00;;;;;16.57;57.13;100758.72;5041855;28;48548;-70
2023/03/30 07:45:51;;;;;;;;;2.33;2.33;;;;;16.74;56.29;100754.03;5059666;28;45364;-72
2023/03/30 07:48:16;;;;;;;;;3.67;2.67;;;;;16.87;55.88;100753.41;5060591;28;45289;-72
2023/03/30 07:50:42;;;;;;;;;4.67;4.00;;;;;16.82;55.33;100727.13;5060743;28;45555;-74
2023/03/30 07:53:07;;;;;;;;;5.00;4.00;;;;;16.76;55.29;100713.59;5041541;28;46652;-73
2023/03/30 07:55:32;;;;;;;;;6.00;5.33;;;;;16.89;54.79;100717.31;5050201;28;45458;-72
2023/03/30 07:57:58;;;;;;;;;6.67;5.00;;;;;17.09;54.50;100763.22;5061697;28;45513;-74
2023/03/30 08:00:24;;;;;;;;;8.00;5.00;;;;;16.44;54.16;100680.69;5059455;28;45222;-71
2023/03/30 08:02:50;;;;;;;;;4.67;3.00;;;;;16.60;53.74;100685.88;5072093;28;45522;-72
2023/03/30 08:05:16;;;;;;;;;6.00;5.00;;;;;16.46;53.71;100642.94;5047807;28;45409;-71
2023/03/30 08:07:42;;;;;;;;;5.67;3.00;;;;;17.03;53.33;100743.34;5059738;28;45537;-71
2023/03/30 08:10:08;;;;;;;;;3.33;2.67;;;;;17.33;52.94;100765.63;5058369;28;45361;-72
2023/03/30 08:12:34;;;;;;;;;19.00;13.67;;;;;17.50;51.94;100758.19;5043218;28;45748;-70
2023/03/30 08:15:00;;;;;;;;;10.00;4.00;;;;;17.63;51.48;100758.34;5040032;28;45420;-72
2023/03/30 08:17:25;;;;;;;;;1.67;1.00;;;;;17.63;51.86;100779.03;5040072;28;45375;-71
2023/03/30 08:19:51;;;;;;;;;5.00;3.00;;;;;17.47;51.88;100734.38;5046273;28;45480;-73
2023/03/30 08:22:19;;;;;;;;;8.00;4.00;;;;;17.39;51.16;100704.06;5065142;28;46440;-73
2023/03/30 08:24:45;;;;;;;;;3.00;2.00;;;;;18.15;50.53;100761.78;5040818;28;45499;-72
2023/03/30 08:27:10;;;;;;;;;4.67;3.67;;;;;18.48;49.00;100706.38;5060191;28;45321;-73
2023/03/30 08:29:35;;;;;;;;;3.33;2.00;;;;;18.51;48.30;100676.34;5060080;28;45155;-72
2023/03/30 08:32:02;;;;;;;;;2.00;2.00;;;;;19.30;48.43;100791.03;5040208;28;48387;-73
2023/03/30 08:34:30;;;;;;;;;2.00;0.00;;;;;19.55;47.54;100776.03;5040164;28;45484;-72
2023/03/30 08:36:56;;;;;;;;;6.00;4.00;;;;;19.55;47.26;100783.28;5059094;28;45552;-71
2023/03/30 08:39:23;;;;;;;;;3.67;1.67;;;;;18.98;47.05;100680.16;5057302;28;45485;-72
2023/03/30 08:41:54;;;;;;;;;4.00;2.00;;;;;20.29;45.67;100807.56;5058133;28;46998;-73
2023/03/30 08:44:41;;;;;;;;;3.33;2.33;;;;;20.44;44.84;100796.59;5053651;28;45522;-71
2023/03/30 08:47:31;;;;;;;;;3.25;3.25;;;;;20.02;45.31;100752.69;5056375;28;45478;-71
2023/03/30 08:50:05;;;;;;;;;6.00;5.00;;;;;20.20;45.54;100804.19;5057190;28;45578;-72
2023/03/30 08:52:32;;;;;;;;;4.50;2.00;;;;;20.22;45.61;100810.25;5055626;28;47326;-72
2023/03/30 08:54:58;;;;;;;;;4.00;3.25;;;;;19.91;45.44;100778.41;5058163;28;45627;-72
2023/03/30 08:57:35;;;;;;;;;5.00;2.00;;;;;19.68;45.31;100737.47;5057840;28;45349;-72
2023/03/30 09:00:26;;;;;;;;;3.25;3.00;;;;;19.19;45.59;100681.06;5058082;28;45474;-73
2023/03/30 09:03:03;;;;;;;;;2.67;2.67;;;;;19.58;45.58;100748.63;5040257;28;46558;-72
2023/03/30 09:05:36;;;;;;;;;2.00;2.00;;;;;19.67;46.28;100820.28;5057959;28;45361;-71
2023/03/30 09:08:34;;;;;;;;;3.00;1.33;;;;;19.48;47.03;100829.06;5058186;28;45229;-71
2023/03/30 09:11:03;;;;;;;;;4.67;2.67;;;;;19.24;47.40;100824.19;5017762;28;45620;-71
2023/03/30 09:13:34;;;;;;;;;2.75;2.75;;;;;18.65;48.32;100803.06;5057833;28;48443;-73
2023/03/30 09:16:16;;;;;;;;;8.33;6.67;;;;;17.47;49.25;100631.41;5039852;28;45432;-75
2023/03/30 09:18:45;;;;;;;;;8.33;7.67;;;;;18.30;50.16;100829.84;5058111;28;45401;-74
2023/03/30 09:21:12;;;;;;;;;5.00;3.67;;;;;18.27;50.74;100826.69;5058505;28;45222;-73
2023/03/30 09:23:38;;;;;;;;;4.33;4.33;;;;;18.28;50.37;100828.38;5058037;28;45604;-72
2023/03/30 09:26:27;;;;;;;;;6.00;4.00;;;;;18.43;50.36;100827.28;5039528;28;45575;-71
2023/03/30 09:29:16;;;;;;;;;4.33;3.33;;;;;18.43;50.27;100834.53;5057294;28;45226;-71
2023/03/30 09:32:00;;;;;;;;;4.00;2.33;;;;;18.35;50.27;100843.53;5057969;28;45567;-72
2023/03/30 09:34:38;;;;;;;;;3.00;3.00;;;;;18.76;49.80;100829.44;5058581;28;46653;-73
2023/03/30 09:37:08;;;;;;;;;5.67;4.00;;;;;19.64;47.57;100831.47;5059449;28;45397;-74
2023/03/30 09:39:37;;;;;;;;;3.00;2.00;;;;;20.03;46.55;100829.94;5060092;28;45380;-73
2023/03/30 09:42:32;;;;;;;;;8.33;4.00;;;;;20.73;45.67;100836.69;5040608;28;45590;-72
2023/03/30 09:45:19;;;;;;;;;5.00;4.00;;;;;20.91;44.49;100834.19;5039506;28;46013;-74
2023/03/30 09:47:45;;;;;;;;;7.67;6.33;;;;;20.76;43.85;100814.66;5038628;28;45497;-70
2023/03/30 09:50:18;;;;;;;;;1.50;1.50;;;;;20.88;43.74;100845.41;5057795;28;45239;-73
2023/03/30 09:52:58;;;;;;;;;7.67;4.00;;;;;21.33;42.68;100825.81;5059629;28;45249;-72
2023/03/30 09:55:30;;;;;;;;;8.00;3.00;;;;;21.30;42.77;100848.72;5060595;28;46805;-73
2023/03/30 09:58:25;;;;;;;;;5.00;2.00;;;;;21.28;42.48;100845.38;5061234;28;45247;-72
2023/03/30 10:01:20;;;;;;;;;4.33;2.67;;;;;20.87;42.60;100832.94;5060904;28;45296;-72
2023/03/30 10:04:06;;;;;;;;;3.00;3.00;;;;;20.73;43.77;100855.59;5048564;28;45521;-72
2023/03/30 10:06:37;;;;;;;;;5.50;5.50;;;;;20.73;44.05;100860.16;5062394;28;46657;-71
2023/03/30 10:09:05;;;;;;;;;4.50;3.00;;;;;20.41;43.83;100837.50;5061061;28;45404;-71
2023/03/30 10:11:31;;;;;;;;;4.00;3.67;;;;;19.98;44.99;100859.38;5061119;28;45477;-71
2023/03/30 10:13:57;;;;;;;;;4.00;3.00;;;;;19.65;44.73;100830.44;5060114;28;45699;-72
2023/03/30 10:16:26;;;;;;;;;6.33;2.67;;;;;19.33;45.64;100855.31;5077601;28;45561;-73
2023/03/30 10:18:54;;;;;;;;;2.75;1.75;;;;;19.10;46.21;100869.06;5061098;28;45461;-73
2023/03/30 10:21:26;;;;;;;;;4.50;2.50;;;;;19.02;46.55;100861.13;5061372;28;45340;-72
2023/03/30 10:24:07;;;;;;;;;3.33;3.00;;;;;18.20;46.60;100718.97;5060931;28;45370;-72
2023/03/30 10:26:36;;;;;;;;;2.25;1.25;;;;;18.24;46.25;100718.41;5040658;28;45887;-73
2023/03/30 10:29:09;;;;;;;;;6.67;3.00;;;;;18.40;46.08;100746.03;5042026;28;45362;-73
2023/03/30 10:31:37;;;;;;;;;5.00;4.00;;;;;19.28;45.53;100865.88;5060669;28;45450;-73
2023/03/30 10:34:13;;;;;;;;;8.67;4.67;;;;;18.93;46.39;100790.41;5061828;28;45242;-74
2023/03/30 10:36:39;;;;;;;;;5.50;3.00;;;;;18.62;46.39;100734.22;5043046;28;45323;-72
2023/03/30 10:39:21;;;;;;;;;5.00;3.00;;;;;19.18;46.58;100835.72;5042938;28;46253;-71
2023/03/30 10:41:49;;;;;;;;;6.00;6.00;;;;;17.85;46.94;100665.09;5062592;28;45439;-74
2023/03/30 10:44:29;;;;;;;;;5.67;4.00;;;;;18.27;48.19;100771.00;5043628;28;45321;-71
2023/03/30 10:47:34;;;;;;;;;3.00;3.00;;;;;18.66;48.35;100831.63;5061017;28;46973;-74
2023/03/30 10:50:11;;;;;;;;;5.33;5.00;;;;;18.09;47.78;100768.78;5060776;28;45490;-71
2023/03/30 10:52:54;;;;;;;;;2.67;2.67;;;;;18.56;47.83;100831.94;5042351;28;45486;-72
2023/03/30 10:55:45;;;;;;;;;9.67;4.33;;;;;18.07;47.80;100752.00;5059987;28;45419;-73
2023/03/30 10:58:51;;;;;;;;;3.33;3.33;;;;;18.76;47.06;100816.78;5061243;28;46110;-71
2023/03/30 11:01:46;;;;;;;;;4.00;3.00;;;;;18.95;45.80;100817.97;5061602;28;45242;-72
2023/03/30 11:04:30;;;;;;;;;6.33;3.33;;;;;19.02;45.28;100837.72;5043927;28;45488;-74
2023/03/30 11:06:58;;;;;;;;;3.00;3.00;;;;;18.73;44.90;100782.19;5060352;28;45225;-72
2023/03/30 11:09:33;;;;;;;;;3.00;3.00;;;;;18.99;45.30;100853.44;5060072;28;46385;-72
2023/03/30 11:12:21;;;;;;;;;4.00;1.00;;;;;18.80;45.58;100825.31;5042101;28;45453;-72
2023/03/30 11:14:52;;;;;;;;;3.67;2.67;;;;;18.89;45.50;100799.91;5060510;28;45372;-72
2023/03/30 11:17:26;;;;;;;;;5.00;4.00;;;;;19.00;45.61;100820.91;5060656;28;45406;-72
2023/03/30 11:19:55;;;;;;;;;3.33;2.00;;;;;18.01;44.90;100671.22;5062154;28;46244;-72
2023/03/30 11:22:45;;;;;;;;;2.00;2.00;;;;;18.89;44.57;100818.75;5062541;28;45433;-71
2023/03/30 11:25:22;;;;;;;;;3.33;3.33;;;;;18.33;44.50;100751.38;5043770;28;45332;-73
2023/03/30 11:28:00;;;;;;;;;3.33;2.33;;;;;18.60;44.38;100778.50;5062181;28;45241;-72
2023/03/30 11:30:30;;;;;;;;;2.00;1.00;;;;;18.41;44.52;100740.47;5060022;28;45369;-72
2023/03/30 11:33:27;;;;;;;;;3.67;3.67;;;;;18.99;44.31;100821.94;5059592;28;45317;-71
2023/03/30 11:35:59;;;;;;;;;2.00;1.00;;;;;18.85;43.59;100782.47;5062436;28;45321;-72
2023/03/30 11:38:32;;;;;;;;;5.33;3.67;;;;;18.98;43.92;100839.13;5062050;28;45169;-71
2023/03/30 11:41:13;;;;;;;;;3.00;2.67;;;;;18.14;44.38;100692.84;5061288;28;46213;-72